sensor_id;sensor_type;location;lat;lon;timestamp;P1;durP1;ratioP1;P2;durP2;ratioP2
71196;SDS011;58918;51.652;4.864;2023-06-22T00:00:15;5.65;;;1.67;;
71196;SDS011;58918;51.652;4.864;2023-06-22T00:02:42;4.95;;;1.40;;
71196;SDS011;58918;51.652;4.864;2023-06-22T00:05:09;4.85;;;1.40;;
71196;SDS011;58918;51.652;4.864;2023-06-22T00:07:36;3.50;;;1.20;;
71196;SDS011;58918;51.652;4.864;2023-06-22T00:10:04;4.05;;;1.30;;
71196;SDS011;58918;51.652;4.864;2023-06-22T00:12:31;3.42;;;1.48;;
71196;SDS011;58918;51.652;4.864;2023-06-22T00:14:59;3.65;;;1.25;;
71196;SDS011;58918;51.652;4.864;2023-06-22T00:17:26;4.70;;;1.52;;
71196;SDS011;58918;51.652;4.864;2023-06-22T00:19:53;3.63;;;1.35;;
71196;SDS011;58918;51.652;4.864;2023-06-22T00:22:21;3.83;;;1.40;;
71196;SDS011;58918;51.652;4.864;2023-06-22T00:24:55;3.40;;;1.17;;
71196;SDS011;58918;51.652;4.864;2023-06-22T00:27:22;3.72;;;1.50;;
71196;SDS011;58918;51.652;4.864;2023-06-22T00:29:49;3.65;;;1.40;;
71196;SDS011;58918;51.652;4.864;2023-06-22T00:32:16;6.10;;;1.80;;
71196;SDS011;58918;51.652;4.864;2023-06-22T00:34:45;4.10;;;1.50;;
71196;SDS011;58918;51.652;4.864;2023-06-22T00:37:12;5.00;;;1.40;;
71196;SDS011;58918;51.652;4.864;2023-06-22T00:39:39;2.90;;;1.40;;
71196;SDS011;58918;51.652;4.864;2023-06-22T00:42:06;3.05;;;1.17;;
71196;SDS011;58918;51.652;4.864;2023-06-22T00:44:34;3.28;;;1.42;;
71196;SDS011;58918;51.652;4.864;2023-06-22T00:47:02;3.35;;;1.50;;
71196;SDS011;58918;51.652;4.864;2023-06-22T00:49:29;3.95;;;1.30;;
71196;SDS011;58918;51.652;4.864;2023-06-22T00:51:57;8.23;;;1.40;;
71196;SDS011;58918;51.652;4.864;2023-06-22T00:54:24;4.80;;;1.40;;
71196;SDS011;58918;51.652;4.864;2023-06-22T00:56:54;4.78;;;1.20;;
71196;SDS011;58918;51.652;4.864;2023-06-22T00:59:23;3.63;;;1.35;;
71196;SDS011;58918;51.652;4.864;2023-06-22T01:01:52;3.88;;;1.20;;
71196;SDS011;58918;51.652;4.864;2023-06-22T01:04:19;3.45;;;1.20;;
71196;SDS011;58918;51.652;4.864;2023-06-22T01:06:54;4.00;;;1.65;;
71196;SDS011;58918;51.652;4.864;2023-06-22T01:09:28;3.53;;;1.27;;
71196;SDS011;58918;51.652;4.864;2023-06-22T01:11:57;5.05;;;1.33;;
71196;SDS011;58918;51.652;4.864;2023-06-22T01:14:37;7.35;;;1.63;;
71196;SDS011;58918;51.652;4.864;2023-06-22T01:17:07;3.88;;;1.30;;
71196;SDS011;58918;51.652;4.864;2023-06-22T01:22:03;3.70;;;1.10;;
71196;SDS011;58918;51.652;4.864;2023-06-22T01:29:55;3.40;;;1.27;;
71196;SDS011;58918;51.652;4.864;2023-06-22T01:32:29;3.85;;;1.33;;
71196;SDS011;58918;51.652;4.864;2023-06-22T01:35:00;4.28;;;1.35;;
71196;SDS011;58918;51.652;4.864;2023-06-22T01:37:27;3.67;;;1.35;;
71196;SDS011;58918;51.652;4.864;2023-06-22T01:39:55;4.32;;;1.38;;
71196;SDS011;58918;51.652;4.864;2023-06-22T01:42:26;4.43;;;1.42;;
71196;SDS011;58918;51.652;4.864;2023-06-22T01:44:54;4.90;;;1.50;;
71196;SDS011;58918;51.652;4.864;2023-06-22T01:47:22;4.82;;;1.80;;
71196;SDS011;58918;51.652;4.864;2023-06-22T01:49:50;4.28;;;1.60;;
71196;SDS011;58918;51.652;4.864;2023-06-22T01:52:20;4.30;;;1.27;;
71196;SDS011;58918;51.652;4.864;2023-06-22T01:54:47;3.25;;;1.30;;
71196;SDS011;58918;51.652;4.864;2023-06-22T01:57:15;4.03;;;1.27;;
71196;SDS011;58918;51.652;4.864;2023-06-22T01:59:51;3.50;;;1.27;;
71196;SDS011;58918;51.652;4.864;2023-06-22T02:02:21;6.47;;;2.25;;
71196;SDS011;58918;51.652;4.864;2023-06-22T02:04:57;6.60;;;1.40;;
71196;SDS011;58918;51.652;4.864;2023-06-22T02:07:28;4.13;;;1.50;;
71196;SDS011;58918;51.652;4.864;2023-06-22T02:09:56;4.40;;;1.42;;
71196;SDS011;58918;51.652;4.864;2023-06-22T02:12:25;4.57;;;1.50;;
71196;SDS011;58918;51.652;4.864;2023-06-22T02:14:54;5.78;;;1.40;;
71196;SDS011;58918;51.652;4.864;2023-06-22T02:17:21;3.95;;;1.30;;
71196;SDS011;58918;51.652;4.864;2023-06-22T02:19:50;4.13;;;1.60;;
71196;SDS011;58918;51.652;4.864;2023-06-22T02:22:17;4.55;;;1.63;;
71196;SDS011;58918;51.652;4.864;2023-06-22T02:24:44;3.80;;;1.30;;
71196;SDS011;58918;51.652;4.864;2023-06-22T02:27:11;4.40;;;1.60;;
71196;SDS011;58918;51.652;4.864;2023-06-22T02:29:39;4.82;;;1.67;;
71196;SDS011;58918;51.652;4.864;2023-06-22T02:32:06;5.03;;;1.55;;
71196;SDS011;58918;51.652;4.864;2023-06-22T02:34:33;4.57;;;1.50;;
71196;SDS011;58918;51.652;4.864;2023-06-22T02:37:00;3.90;;;1.63;;
71196;SDS011;58918;51.652;4.864;2023-06-22T02:39:28;3.80;;;1.50;;
71196;SDS011;58918;51.652;4.864;2023-06-22T02:41:56;3.45;;;1.35;;
71196;SDS011;58918;51.652;4.864;2023-06-22T02:44:23;3.33;;;1.25;;
71196;SDS011;58918;51.652;4.864;2023-06-22T02:46:50;3.95;;;1.50;;
71196;SDS011;58918;51.652;4.864;2023-06-22T02:49:17;3.50;;;1.40;;
71196;SDS011;58918;51.652;4.864;2023-06-22T02:51:45;4.40;;;1.58;;
71196;SDS011;58918;51.652;4.864;2023-06-22T02:54:13;4.28;;;1.60;;
71196;SDS011;58918;51.652;4.864;2023-06-22T02:56:40;3.75;;;1.52;;
71196;SDS011;58918;51.652;4.864;2023-06-22T02:59:10;5.03;;;1.40;;
71196;SDS011;58918;51.652;4.864;2023-06-22T03:01:37;4.13;;;1.50;;
71196;SDS011;58918;51.652;4.864;2023-06-22T03:04:07;4.07;;;1.55;;
71196;SDS011;58918;51.652;4.864;2023-06-22T03:06:35;4.70;;;1.40;;
71196;SDS011;58918;51.652;4.864;2023-06-22T03:09:03;3.40;;;1.45;;
71196;SDS011;58918;51.652;4.864;2023-06-22T03:11:31;4.05;;;1.50;;
71196;SDS011;58918;51.652;4.864;2023-06-22T03:13:59;4.72;;;1.45;;
71196;SDS011;58918;51.652;4.864;2023-06-22T03:16:26;5.57;;;1.70;;
71196;SDS011;58918;51.652;4.864;2023-06-22T03:18:54;3.80;;;1.50;;
71196;SDS011;58918;51.652;4.864;2023-06-22T03:21:26;3.53;;;1.40;;
71196;SDS011;58918;51.652;4.864;2023-06-22T03:23:54;4.22;;;1.60;;
71196;SDS011;58918;51.652;4.864;2023-06-22T03:26:21;4.80;;;1.52;;
71196;SDS011;58918;51.652;4.864;2023-06-22T03:28:50;4.53;;;1.83;;
71196;SDS011;58918;51.652;4.864;2023-06-22T03:31:17;4.97;;;1.83;;
71196;SDS011;58918;51.652;4.864;2023-06-22T03:33:48;4.93;;;2.00;;
71196;SDS011;58918;51.652;4.864;2023-06-22T03:36:16;4.13;;;1.80;;
71196;SDS011;58918;51.652;4.864;2023-06-22T03:38:48;4.57;;;1.52;;
71196;SDS011;58918;51.652;4.864;2023-06-22T03:41:15;3.85;;;1.42;;
71196;SDS011;58918;51.652;4.864;2023-06-22T03:43:43;5.85;;;1.55;;
71196;SDS011;58918;51.652;4.864;2023-06-22T03:46:10;4.00;;;1.40;;
71196;SDS011;58918;51.652;4.864;2023-06-22T03:48:37;5.68;;;1.85;;
71196;SDS011;58918;51.652;4.864;2023-06-22T03:51:04;5.70;;;1.85;;
71196;SDS011;58918;51.652;4.864;2023-06-22T03:53:32;4.65;;;1.45;;
71196;SDS011;58918;51.652;4.864;2023-06-22T03:55:59;3.90;;;1.67;;
71196;SDS011;58918;51.652;4.864;2023-06-22T03:58:26;3.72;;;1.63;;
71196;SDS011;58918;51.652;4.864;2023-06-22T04:00:59;4.95;;;1.73;;
71196;SDS011;58918;51.652;4.864;2023-06-22T04:03:26;5.28;;;1.52;;
71196;SDS011;58918;51.652;4.864;2023-06-22T04:05:53;4.15;;;1.70;;
71196;SDS011;58918;51.652;4.864;2023-06-22T04:08:20;3.83;;;1.60;;
71196;SDS011;58918;51.652;4.864;2023-06-22T04:10:48;6.97;;;1.80;;
71196;SDS011;58918;51.652;4.864;2023-06-22T04:13:15;4.70;;;1.70;;
71196;SDS011;58918;51.652;4.864;2023-06-22T04:15:42;5.47;;;1.75;;
71196;SDS011;58918;51.652;4.864;2023-06-22T04:18:10;4.65;;;1.95;;
71196;SDS011;58918;51.652;4.864;2023-06-22T04:20:37;5.03;;;1.75;;
71196;SDS011;58918;51.652;4.864;2023-06-22T04:23:05;9.38;;;2.53;;
71196;SDS011;58918;51.652;4.864;2023-06-22T04:25:32;6.65;;;3.17;;
71196;SDS011;58918;51.652;4.864;2023-06-22T04:27:59;12.40;;;2.60;;
71196;SDS011;58918;51.652;4.864;2023-06-22T04:30:29;7.45;;;3.38;;
71196;SDS011;58918;51.652;4.864;2023-06-22T04:32:57;8.50;;;4.50;;
71196;SDS011;58918;51.652;4.864;2023-06-22T04:35:25;9.02;;;4.35;;
71196;SDS011;58918;51.652;4.864;2023-06-22T04:37:55;9.68;;;4.50;;
71196;SDS011;58918;51.652;4.864;2023-06-22T04:40:23;9.65;;;4.90;;
71196;SDS011;58918;51.652;4.864;2023-06-22T04:42:50;9.60;;;5.18;;
71196;SDS011;58918;51.652;4.864;2023-06-22T04:45:20;9.45;;;4.80;;
71196;SDS011;58918;51.652;4.864;2023-06-22T04:47:48;10.90;;;5.18;;
71196;SDS011;58918;51.652;4.864;2023-06-22T04:50:15;9.68;;;4.97;;
71196;SDS011;58918;51.652;4.864;2023-06-22T04:52:44;8.70;;;4.40;;
71196;SDS011;58918;51.652;4.864;2023-06-22T04:55:12;8.10;;;4.65;;
71196;SDS011;58918;51.652;4.864;2023-06-22T04:57:41;9.02;;;4.85;;
71196;SDS011;58918;51.652;4.864;2023-06-22T05:00:11;10.25;;;4.60;;
71196;SDS011;58918;51.652;4.864;2023-06-22T05:02:38;13.20;;;4.70;;
71196;SDS011;58918;51.652;4.864;2023-06-22T05:05:06;7.85;;;4.38;;
71196;SDS011;58918;51.652;4.864;2023-06-22T05:07:34;8.48;;;4.22;;
71196;SDS011;58918;51.652;4.864;2023-06-22T05:10:05;8.73;;;4.20;;
71196;SDS011;58918;51.652;4.864;2023-06-22T05:12:32;9.00;;;4.75;;
71196;SDS011;58918;51.652;4.864;2023-06-22T05:14:59;10.75;;;4.30;;
71196;SDS011;58918;51.652;4.864;2023-06-22T05:17:27;9.68;;;4.80;;
71196;SDS011;58918;51.652;4.864;2023-06-22T05:19:54;8.25;;;4.93;;
71196;SDS011;58918;51.652;4.864;2023-06-22T05:22:22;8.77;;;5.13;;
71196;SDS011;58918;51.652;4.864;2023-06-22T05:24:49;8.55;;;4.30;;
71196;SDS011;58918;51.652;4.864;2023-06-22T05:27:16;8.27;;;4.03;;
71196;SDS011;58918;51.652;4.864;2023-06-22T05:29:43;9.00;;;4.25;;
71196;SDS011;58918;51.652;4.864;2023-06-22T05:32:10;13.02;;;4.80;;
71196;SDS011;58918;51.652;4.864;2023-06-22T05:34:38;7.47;;;4.18;;
71196;SDS011;58918;51.652;4.864;2023-06-22T05:37:06;7.25;;;3.90;;
71196;SDS011;58918;51.652;4.864;2023-06-22T05:39:35;7.63;;;4.15;;
71196;SDS011;58918;51.652;4.864;2023-06-22T05:42:06;8.02;;;4.28;;
71196;SDS011;58918;51.652;4.864;2023-06-22T05:44:36;11.10;;;4.30;;
71196;SDS011;58918;51.652;4.864;2023-06-22T05:47:05;7.47;;;4.05;;
71196;SDS011;58918;51.652;4.864;2023-06-22T05:49:32;8.82;;;3.97;;
71196;SDS011;58918;51.652;4.864;2023-06-22T05:51:59;12.13;;;4.82;;
71196;SDS011;58918;51.652;4.864;2023-06-22T05:54:27;7.45;;;4.13;;
71196;SDS011;58918;51.652;4.864;2023-06-22T05:56:55;9.75;;;3.90;;
71196;SDS011;58918;51.652;4.864;2023-06-22T05:59:22;7.93;;;4.18;;
71196;SDS011;58918;51.652;4.864;2023-06-22T06:01:49;9.27;;;4.57;;
71196;SDS011;58918;51.652;4.864;2023-06-22T06:04:17;10.55;;;4.68;;
71196;SDS011;58918;51.652;4.864;2023-06-22T06:06:45;8.38;;;3.90;;
71196;SDS011;58918;51.652;4.864;2023-06-22T06:09:14;8.77;;;4.43;;
71196;SDS011;58918;51.652;4.864;2023-06-22T06:11:41;8.55;;;4.10;;
71196;SDS011;58918;51.652;4.864;2023-06-22T06:14:08;6.13;;;3.20;;
71196;SDS011;58918;51.652;4.864;2023-06-22T06:16:35;9.70;;;5.03;;
71196;SDS011;58918;51.652;4.864;2023-06-22T06:19:03;8.40;;;4.00;;
71196;SDS011;58918;51.652;4.864;2023-06-22T06:21:30;8.80;;;4.43;;
71196;SDS011;58918;51.652;4.864;2023-06-22T06:23:57;6.80;;;3.38;;
71196;SDS011;58918;51.652;4.864;2023-06-22T06:26:25;8.05;;;4.20;;
71196;SDS011;58918;51.652;4.864;2023-06-22T06:28:56;7.03;;;3.30;;
71196;SDS011;58918;51.652;4.864;2023-06-22T06:31:23;11.35;;;4.05;;
71196;SDS011;58918;51.652;4.864;2023-06-22T06:33:54;8.13;;;4.07;;
71196;SDS011;58918;51.652;4.864;2023-06-22T06:36:21;13.55;;;4.78;;
71196;SDS011;58918;51.652;4.864;2023-06-22T06:38:48;8.77;;;3.72;;
71196;SDS011;58918;51.652;4.864;2023-06-22T06:41:16;10.20;;;3.97;;
71196;SDS011;58918;51.652;4.864;2023-06-22T06:43:43;8.10;;;3.53;;
71196;SDS011;58918;51.652;4.864;2023-06-22T06:46:10;8.00;;;3.65;;
71196;SDS011;58918;51.652;4.864;2023-06-22T06:48:38;6.95;;;3.67;;
71196;SDS011;58918;51.652;4.864;2023-06-22T06:51:06;7.72;;;3.72;;
71196;SDS011;58918;51.652;4.864;2023-06-22T06:53:36;9.52;;;4.13;;
71196;SDS011;58918;51.652;4.864;2023-06-22T06:56:03;9.38;;;4.25;;
71196;SDS011;58918;51.652;4.864;2023-06-22T06:58:31;12.52;;;4.65;;
71196;SDS011;58918;51.652;4.864;2023-06-22T07:00:59;10.57;;;3.95;;
71196;SDS011;58918;51.652;4.864;2023-06-22T07:03:26;7.50;;;3.42;;
71196;SDS011;58918;51.652;4.864;2023-06-22T07:05:53;7.72;;;2.95;;
71196;SDS011;58918;51.652;4.864;2023-06-22T07:08:20;9.65;;;3.60;;
71196;SDS011;58918;51.652;4.864;2023-06-22T07:10:48;11.57;;;4.35;;
71196;SDS011;58918;51.652;4.864;2023-06-22T07:13:15;10.85;;;3.75;;
71196;SDS011;58918;51.652;4.864;2023-06-22T07:15:42;6.63;;;3.35;;
71196;SDS011;58918;51.652;4.864;2023-06-22T07:18:09;7.78;;;3.83;;
71196;SDS011;58918;51.652;4.864;2023-06-22T07:20:37;7.22;;;3.35;;
71196;SDS011;58918;51.652;4.864;2023-06-22T07:23:05;7.00;;;3.75;;
71196;SDS011;58918;51.652;4.864;2023-06-22T07:25:32;9.43;;;3.88;;
71196;SDS011;58918;51.652;4.864;2023-06-22T07:28:03;7.60;;;3.88;;
71196;SDS011;58918;51.652;4.864;2023-06-22T07:30:31;10.68;;;4.38;;
71196;SDS011;58918;51.652;4.864;2023-06-22T07:33:00;6.97;;;3.88;;
71196;SDS011;58918;51.652;4.864;2023-06-22T07:35:30;6.70;;;3.67;;
71196;SDS011;58918;51.652;4.864;2023-06-22T07:37:58;8.38;;;3.40;;
71196;SDS011;58918;51.652;4.864;2023-06-22T07:40:30;12.30;;;3.15;;
71196;SDS011;58918;51.652;4.864;2023-06-22T07:42:58;8.25;;;3.65;;
71196;SDS011;58918;51.652;4.864;2023-06-22T07:45:25;7.25;;;3.42;;
71196;SDS011;58918;51.652;4.864;2023-06-22T07:47:52;6.20;;;3.30;;
71196;SDS011;58918;51.652;4.864;2023-06-22T07:50:20;8.43;;;3.53;;
71196;SDS011;58918;51.652;4.864;2023-06-22T07:52:47;7.60;;;3.60;;
71196;SDS011;58918;51.652;4.864;2023-06-22T07:55:14;6.85;;;3.30;;
71196;SDS011;58918;51.652;4.864;2023-06-22T07:57:41;7.68;;;3.72;;
71196;SDS011;58918;51.652;4.864;2023-06-22T08:00:09;7.57;;;4.50;;
71196;SDS011;58918;51.652;4.864;2023-06-22T08:02:42;9.10;;;4.75;;
71196;SDS011;58918;51.652;4.864;2023-06-22T08:05:09;8.50;;;4.40;;
71196;SDS011;58918;51.652;4.864;2023-06-22T08:07:40;6.55;;;3.90;;
71196;SDS011;58918;51.652;4.864;2023-06-22T08:10:12;8.10;;;4.75;;
71196;SDS011;58918;51.652;4.864;2023-06-22T08:12:40;8.90;;;5.00;;
71196;SDS011;58918;51.652;4.864;2023-06-22T08:15:07;10.68;;;5.15;;
71196;SDS011;58918;51.652;4.864;2023-06-22T08:17:38;10.88;;;4.82;;
71196;SDS011;58918;51.652;4.864;2023-06-22T08:20:06;7.70;;;4.43;;
71196;SDS011;58918;51.652;4.864;2023-06-22T08:22:40;10.75;;;5.18;;
71196;SDS011;58918;51.652;4.864;2023-06-22T08:25:08;10.13;;;5.40;;
71196;SDS011;58918;51.652;4.864;2023-06-22T08:27:35;12.68;;;5.28;;
71196;SDS011;58918;51.652;4.864;2023-06-22T08:30:03;10.98;;;4.70;;
71196;SDS011;58918;51.652;4.864;2023-06-22T08:32:30;12.40;;;6.35;;
71196;SDS011;58918;51.652;4.864;2023-06-22T08:40:00;11.00;;;5.10;;
71196;SDS011;58918;51.652;4.864;2023-06-22T08:42:27;9.00;;;4.95;;
71196;SDS011;58918;51.652;4.864;2023-06-22T08:44:55;9.77;;;5.60;;
71196;SDS011;58918;51.652;4.864;2023-06-22T08:47:22;9.55;;;4.68;;
71196;SDS011;58918;51.652;4.864;2023-06-22T08:49:49;10.27;;;5.78;;
71196;SDS011;58918;51.652;4.864;2023-06-22T08:52:17;13.13;;;5.85;;
71196;SDS011;58918;51.652;4.864;2023-06-22T08:54:49;9.63;;;5.13;;
71196;SDS011;58918;51.652;4.864;2023-06-22T08:57:16;8.25;;;5.05;;
71196;SDS011;58918;51.652;4.864;2023-06-22T08:59:43;11.50;;;5.88;;
71196;SDS011;58918;51.652;4.864;2023-06-22T09:02:10;11.05;;;5.13;;
71196;SDS011;58918;51.652;4.864;2023-06-22T09:04:38;12.68;;;5.60;;
71196;SDS011;58918;51.652;4.864;2023-06-22T09:07:05;11.75;;;5.55;;
71196;SDS011;58918;51.652;4.864;2023-06-22T09:09:33;12.10;;;5.60;;
71196;SDS011;58918;51.652;4.864;2023-06-22T09:12:00;10.02;;;5.72;;
71196;SDS011;58918;51.652;4.864;2023-06-22T09:14:27;11.05;;;6.43;;
71196;SDS011;58918;51.652;4.864;2023-06-22T09:16:54;13.93;;;5.97;;
71196;SDS011;58918;51.652;4.864;2023-06-22T09:19:22;15.40;;;5.97;;
71196;SDS011;58918;51.652;4.864;2023-06-22T09:21:49;13.73;;;6.00;;
71196;SDS011;58918;51.652;4.864;2023-06-22T09:24:16;11.02;;;5.90;;
71196;SDS011;58918;51.652;4.864;2023-06-22T09:26:44;10.65;;;5.10;;
71196;SDS011;58918;51.652;4.864;2023-06-22T09:29:11;12.00;;;6.55;;
71196;SDS011;58918;51.652;4.864;2023-06-22T09:31:38;12.85;;;6.13;;
71196;SDS011;58918;51.652;4.864;2023-06-22T09:34:06;10.63;;;5.63;;
71196;SDS011;58918;51.652;4.864;2023-06-22T09:36:33;14.25;;;5.88;;
71196;SDS011;58918;51.652;4.864;2023-06-22T09:39:01;11.93;;;6.07;;
71196;SDS011;58918;51.652;4.864;2023-06-22T09:41:32;13.65;;;6.75;;
71196;SDS011;58918;51.652;4.864;2023-06-22T09:43:59;11.13;;;6.53;;
71196;SDS011;58918;51.652;4.864;2023-06-22T09:46:26;11.82;;;6.28;;
71196;SDS011;58918;51.652;4.864;2023-06-22T09:48:54;9.57;;;5.65;;
71196;SDS011;58918;51.652;4.864;2023-06-22T09:51:22;13.65;;;6.50;;
71196;SDS011;58918;51.652;4.864;2023-06-22T09:53:50;12.23;;;5.80;;
71196;SDS011;58918;51.652;4.864;2023-06-22T09:56:18;15.75;;;7.10;;
71196;SDS011;58918;51.652;4.864;2023-06-22T09:58:45;12.48;;;6.20;;
71196;SDS011;58918;51.652;4.864;2023-06-22T10:01:13;14.35;;;7.38;;
71196;SDS011;58918;51.652;4.864;2023-06-22T10:03:44;12.23;;;6.22;;
71196;SDS011;58918;51.652;4.864;2023-06-22T10:06:11;9.88;;;5.10;;
71196;SDS011;58918;51.652;4.864;2023-06-22T10:08:38;10.15;;;5.78;;
71196;SDS011;58918;51.652;4.864;2023-06-22T10:11:07;9.57;;;5.78;;
71196;SDS011;58918;51.652;4.864;2023-06-22T10:13:34;10.77;;;5.80;;
71196;SDS011;58918;51.652;4.864;2023-06-22T10:16:01;12.85;;;6.30;;
71196;SDS011;58918;51.652;4.864;2023-06-22T10:18:28;11.23;;;6.05;;
71196;SDS011;58918;51.652;4.864;2023-06-22T10:20:57;11.75;;;6.72;;
71196;SDS011;58918;51.652;4.864;2023-06-22T10:23:24;13.52;;;6.90;;
71196;SDS011;58918;51.652;4.864;2023-06-22T10:25:51;11.93;;;6.05;;
71196;SDS011;58918;51.652;4.864;2023-06-22T10:28:18;13.43;;;6.22;;
71196;SDS011;58918;51.652;4.864;2023-06-22T10:30:46;10.10;;;5.50;;
71196;SDS011;58918;51.652;4.864;2023-06-22T10:33:13;11.35;;;5.82;;
71196;SDS011;58918;51.652;4.864;2023-06-22T10:35:40;11.63;;;5.70;;
71196;SDS011;58918;51.652;4.864;2023-06-22T10:38:07;10.25;;;5.88;;
71196;SDS011;58918;51.652;4.864;2023-06-22T10:40:35;12.57;;;6.45;;
71196;SDS011;58918;51.652;4.864;2023-06-22T10:43:02;10.70;;;5.50;;
71196;SDS011;58918;51.652;4.864;2023-06-22T10:45:29;12.82;;;7.72;;
71196;SDS011;58918;51.652;4.864;2023-06-22T10:47:57;9.18;;;5.22;;
71196;SDS011;58918;51.652;4.864;2023-06-22T10:50:25;9.63;;;5.28;;
71196;SDS011;58918;51.652;4.864;2023-06-22T10:52:53;9.95;;;5.50;;
71196;SDS011;58918;51.652;4.864;2023-06-22T10:55:23;12.45;;;5.55;;
71196;SDS011;58918;51.652;4.864;2023-06-22T10:57:51;11.13;;;5.70;;
71196;SDS011;58918;51.652;4.864;2023-06-22T11:00:18;11.82;;;5.90;;
71196;SDS011;58918;51.652;4.864;2023-06-22T11:02:45;13.27;;;6.55;;
71196;SDS011;58918;51.652;4.864;2023-06-22T11:05:13;13.35;;;6.07;;
71196;SDS011;58918;51.652;4.864;2023-06-22T11:07:43;11.45;;;6.10;;
71196;SDS011;58918;51.652;4.864;2023-06-22T11:10:12;9.65;;;6.45;;
71196;SDS011;58918;51.652;4.864;2023-06-22T11:12:39;10.32;;;6.15;;
71196;SDS011;58918;51.652;4.864;2023-06-22T11:15:08;12.27;;;7.15;;
71196;SDS011;58918;51.652;4.864;2023-06-22T11:17:35;10.93;;;6.65;;
71196;SDS011;58918;51.652;4.864;2023-06-22T11:20:03;11.90;;;7.57;;
71196;SDS011;58918;51.652;4.864;2023-06-22T11:22:38;14.70;;;7.40;;
71196;SDS011;58918;51.652;4.864;2023-06-22T11:25:06;14.40;;;7.07;;
71196;SDS011;58918;51.652;4.864;2023-06-22T11:27:33;13.82;;;7.88;;
71196;SDS011;58918;51.652;4.864;2023-06-22T11:30:00;15.10;;;8.00;;
71196;SDS011;58918;51.652;4.864;2023-06-22T11:32:27;14.10;;;9.00;;
71196;SDS011;58918;51.652;4.864;2023-06-22T11:34:55;15.13;;;8.23;;
71196;SDS011;58918;51.652;4.864;2023-06-22T11:37:22;15.35;;;8.82;;
71196;SDS011;58918;51.652;4.864;2023-06-22T11:39:49;16.83;;;8.10;;
71196;SDS011;58918;51.652;4.864;2023-06-22T11:42:31;15.65;;;8.75;;
71196;SDS011;58918;51.652;4.864;2023-06-22T11:44:58;15.13;;;7.90;;
71196;SDS011;58918;51.652;4.864;2023-06-22T11:47:25;14.70;;;8.02;;
71196;SDS011;58918;51.652;4.864;2023-06-22T11:49:52;14.15;;;8.32;;
71196;SDS011;58918;51.652;4.864;2023-06-22T11:52:20;15.52;;;8.20;;
71196;SDS011;58918;51.652;4.864;2023-06-22T11:54:50;16.70;;;9.07;;
71196;SDS011;58918;51.652;4.864;2023-06-22T11:57:17;15.35;;;9.07;;
71196;SDS011;58918;51.652;4.864;2023-06-22T11:59:44;16.08;;;8.60;;
71196;SDS011;58918;51.652;4.864;2023-06-22T12:02:11;14.48;;;9.00;;
71196;SDS011;58918;51.652;4.864;2023-06-22T12:04:39;14.77;;;8.70;;
71196;SDS011;58918;51.652;4.864;2023-06-22T12:07:06;13.88;;;8.60;;
71196;SDS011;58918;51.652;4.864;2023-06-22T12:09:33;18.13;;;9.88;;
71196;SDS011;58918;51.652;4.864;2023-06-22T12:12:00;13.52;;;8.57;;
71196;SDS011;58918;51.652;4.864;2023-06-22T12:14:27;15.52;;;9.07;;
71196;SDS011;58918;51.652;4.864;2023-06-22T12:16:57;15.32;;;8.10;;
71196;SDS011;58918;51.652;4.864;2023-06-22T12:19:24;15.02;;;8.82;;
71196;SDS011;58918;51.652;4.864;2023-06-22T12:21:52;15.27;;;8.77;;
71196;SDS011;58918;51.652;4.864;2023-06-22T12:24:19;11.48;;;7.80;;
71196;SDS011;58918;51.652;4.864;2023-06-22T12:26:46;17.08;;;8.65;;
71196;SDS011;58918;51.652;4.864;2023-06-22T12:29:13;14.18;;;8.40;;
71196;SDS011;58918;51.652;4.864;2023-06-22T12:31:41;14.50;;;8.43;;
71196;SDS011;58918;51.652;4.864;2023-06-22T12:34:08;17.30;;;9.18;;
71196;SDS011;58918;51.652;4.864;2023-06-22T12:36:35;16.52;;;8.57;;
71196;SDS011;58918;51.652;4.864;2023-06-22T12:39:03;15.43;;;8.60;;
71196;SDS011;58918;51.652;4.864;2023-06-22T12:41:30;12.27;;;7.88;;
71196;SDS011;58918;51.652;4.864;2023-06-22T12:43:57;13.80;;;7.72;;
71196;SDS011;58918;51.652;4.864;2023-06-22T12:46:24;14.18;;;7.82;;
71196;SDS011;58918;51.652;4.864;2023-06-22T12:48:51;13.25;;;7.97;;
71196;SDS011;58918;51.652;4.864;2023-06-22T12:51:22;14.13;;;7.93;;
71196;SDS011;58918;51.652;4.864;2023-06-22T12:53:49;14.27;;;8.30;;
71196;SDS011;58918;51.652;4.864;2023-06-22T12:56:17;11.85;;;7.03;;
71196;SDS011;58918;51.652;4.864;2023-06-22T12:58:44;15.50;;;8.48;;
71196;SDS011;58918;51.652;4.864;2023-06-22T13:01:11;16.63;;;7.88;;
71196;SDS011;58918;51.652;4.864;2023-06-22T13:03:38;14.57;;;7.90;;
71196;SDS011;58918;51.652;4.864;2023-06-22T13:06:06;16.17;;;7.97;;
71196;SDS011;58918;51.652;4.864;2023-06-22T13:08:33;14.95;;;7.97;;
71196;SDS011;58918;51.652;4.864;2023-06-22T13:11:20;14.77;;;8.27;;
71196;SDS011;58918;51.652;4.864;2023-06-22T13:13:48;14.55;;;9.27;;
71196;SDS011;58918;51.652;4.864;2023-06-22T13:16:15;18.33;;;8.45;;
71196;SDS011;58918;51.652;4.864;2023-06-22T13:18:42;13.52;;;8.63;;
71196;SDS011;58918;51.652;4.864;2023-06-22T13:21:09;14.50;;;9.07;;
71196;SDS011;58918;51.652;4.864;2023-06-22T13:23:36;16.83;;;8.38;;
71196;SDS011;58918;51.652;4.864;2023-06-22T13:26:04;14.30;;;8.90;;
71196;SDS011;58918;51.652;4.864;2023-06-22T13:28:31;16.00;;;8.90;;
71196;SDS011;58918;51.652;4.864;2023-06-22T13:30:58;14.75;;;8.45;;
71196;SDS011;58918;51.652;4.864;2023-06-22T13:33:25;14.85;;;8.70;;
71196;SDS011;58918;51.652;4.864;2023-06-22T13:35:53;12.52;;;8.35;;
71196;SDS011;58918;51.652;4.864;2023-06-22T13:38:20;12.43;;;8.48;;
71196;SDS011;58918;51.652;4.864;2023-06-22T13:40:49;12.93;;;7.78;;
71196;SDS011;58918;51.652;4.864;2023-06-22T13:43:16;11.48;;;7.38;;
71196;SDS011;58918;51.652;4.864;2023-06-22T13:45:43;12.88;;;6.88;;
71196;SDS011;58918;51.652;4.864;2023-06-22T13:48:11;14.10;;;7.63;;
71196;SDS011;58918;51.652;4.864;2023-06-22T13:50:38;11.80;;;7.78;;
71196;SDS011;58918;51.652;4.864;2023-06-22T13:53:05;11.55;;;6.40;;
71196;SDS011;58918;51.652;4.864;2023-06-22T13:55:32;10.80;;;6.82;;
71196;SDS011;58918;51.652;4.864;2023-06-22T13:58:00;11.38;;;6.22;;
71196;SDS011;58918;51.652;4.864;2023-06-22T14:00:27;12.05;;;6.43;;
71196;SDS011;58918;51.652;4.864;2023-06-22T14:02:55;11.63;;;6.32;;
71196;SDS011;58918;51.652;4.864;2023-06-22T14:05:22;13.93;;;7.45;;
71196;SDS011;58918;51.652;4.864;2023-06-22T14:07:49;11.90;;;7.30;;
71196;SDS011;58918;51.652;4.864;2023-06-22T14:10:17;11.55;;;7.32;;
71196;SDS011;58918;51.652;4.864;2023-06-22T14:12:44;13.30;;;7.72;;
71196;SDS011;58918;51.652;4.864;2023-06-22T14:15:11;11.10;;;7.32;;
71196;SDS011;58918;51.652;4.864;2023-06-22T14:17:39;12.93;;;7.70;;
71196;SDS011;58918;51.652;4.864;2023-06-22T14:20:06;13.57;;;6.93;;
71196;SDS011;58918;51.652;4.864;2023-06-22T14:22:34;13.98;;;8.18;;
71196;SDS011;58918;51.652;4.864;2023-06-22T14:25:02;12.52;;;7.35;;
71196;SDS011;58918;51.652;4.864;2023-06-22T14:27:29;10.88;;;7.28;;
71196;SDS011;58918;51.652;4.864;2023-06-22T14:29:56;10.25;;;7.13;;
71196;SDS011;58918;51.652;4.864;2023-06-22T14:32:24;15.77;;;7.78;;
71196;SDS011;58918;51.652;4.864;2023-06-22T14:34:51;12.45;;;6.95;;
71196;SDS011;58918;51.652;4.864;2023-06-22T14:37:18;11.02;;;7.82;;
71196;SDS011;58918;51.652;4.864;2023-06-22T14:39:45;11.90;;;7.88;;
71196;SDS011;58918;51.652;4.864;2023-06-22T14:42:13;13.07;;;7.38;;
71196;SDS011;58918;51.652;4.864;2023-06-22T14:44:40;15.15;;;8.52;;
71196;SDS011;58918;51.652;4.864;2023-06-22T14:47:07;16.77;;;7.68;;
71196;SDS011;58918;51.652;4.864;2023-06-22T14:49:34;11.65;;;6.95;;
71196;SDS011;58918;51.652;4.864;2023-06-22T14:52:02;10.35;;;6.72;;
71196;SDS011;58918;51.652;4.864;2023-06-22T14:54:30;12.45;;;7.32;;
71196;SDS011;58918;51.652;4.864;2023-06-22T14:56:57;12.25;;;8.00;;